sensor_id;sensor_type;location;lat;lon;timestamp;P1;durP1;ratioP1;P2;durP2;ratioP2
76599;SDS011;65489;52.048;6.090;2023-06-24T00:00:07;2.08;;;1.50;;
76599;SDS011;65489;52.048;6.090;2023-06-24T00:02:36;1.08;;;1.02;;
76599;SDS011;65489;52.048;6.090;2023-06-24T00:05:02;1.30;;;1.20;;
76599;SDS011;65489;52.048;6.090;2023-06-24T00:07:29;1.23;;;1.13;;
76599;SDS011;65489;52.048;6.090;2023-06-24T00:09:54;1.40;;;1.30;;
76599;SDS011;65489;52.048;6.090;2023-06-24T00:12:21;1.63;;;1.40;;
76599;SDS011;65489;52.048;6.090;2023-06-24T00:14:46;1.92;;;1.25;;
76599;SDS011;65489;52.048;6.090;2023-06-24T00:17:12;1.40;;;1.30;;
76599;SDS011;65489;52.048;6.090;2023-06-24T00:19:38;1.35;;;1.05;;
76599;SDS011;65489;52.048;6.090;2023-06-24T00:22:03;1.30;;;1.20;;
76599;SDS011;65489;52.048;6.090;2023-06-24T00:24:29;1.50;;;1.40;;
76599;SDS011;65489;52.048;6.090;2023-06-24T00:26:55;1.40;;;1.30;;
76599;SDS011;65489;52.048;6.090;2023-06-24T00:29:21;1.30;;;1.20;;
76599;SDS011;65489;52.048;6.090;2023-06-24T00:31:47;1.58;;;1.33;;
76599;SDS011;65489;52.048;6.090;2023-06-24T00:34:13;1.50;;;1.40;;
76599;SDS011;65489;52.048;6.090;2023-06-24T00:36:39;1.38;;;1.25;;
76599;SDS011;65489;52.048;6.090;2023-06-24T00:39:04;1.60;;;1.48;;
76599;SDS011;65489;52.048;6.090;2023-06-24T00:41:33;1.85;;;1.67;;
76599;SDS011;65489;52.048;6.090;2023-06-24T00:43:59;1.83;;;1.40;;
76599;SDS011;65489;52.048;6.090;2023-06-24T00:46:25;1.77;;;1.52;;
76599;SDS011;65489;52.048;6.090;2023-06-24T00:48:53;1.60;;;1.38;;
76599;SDS011;65489;52.048;6.090;2023-06-24T00:51:19;1.60;;;1.35;;
76599;SDS011;65489;52.048;6.090;2023-06-24T00:53:46;1.80;;;1.70;;
76599;SDS011;65489;52.048;6.090;2023-06-24T00:56:13;1.42;;;1.30;;
76599;SDS011;65489;52.048;6.090;2023-06-24T00:58:43;1.40;;;1.30;;
76599;SDS011;65489;52.048;6.090;2023-06-24T01:01:09;1.50;;;1.40;;
76599;SDS011;65489;52.048;6.090;2023-06-24T01:03:34;1.95;;;1.60;;
76599;SDS011;65489;52.048;6.090;2023-06-24T01:06:02;1.38;;;1.27;;
76599;SDS011;65489;52.048;6.090;2023-06-24T01:08:28;2.85;;;1.70;;
76599;SDS011;65489;52.048;6.090;2023-06-24T01:10:54;1.63;;;1.52;;
76599;SDS011;65489;52.048;6.090;2023-06-24T01:13:21;1.52;;;1.42;;
76599;SDS011;65489;52.048;6.090;2023-06-24T01:15:47;2.28;;;1.63;;
76599;SDS011;65489;52.048;6.090;2023-06-24T01:21:03;1.95;;;1.70;;
76599;SDS011;65489;52.048;6.090;2023-06-24T01:32:30;1.50;;;1.40;;
76599;SDS011;65489;52.048;6.090;2023-06-24T01:35:06;1.45;;;1.33;;
76599;SDS011;65489;52.048;6.090;2023-06-24T01:37:35;1.60;;;1.40;;
76599;SDS011;65489;52.048;6.090;2023-06-24T01:40:27;1.95;;;1.40;;
76599;SDS011;65489;52.048;6.090;2023-06-24T01:42:52;1.55;;;1.40;;
76599;SDS011;65489;52.048;6.090;2023-06-24T01:45:21;1.27;;;1.13;;
76599;SDS011;65489;52.048;6.090;2023-06-24T01:47:49;2.90;;;1.63;;
76599;SDS011;65489;52.048;6.090;2023-06-24T01:50:21;1.85;;;1.40;;
76599;SDS011;65489;52.048;6.090;2023-06-24T01:52:49;1.73;;;1.48;;
76599;SDS011;65489;52.048;6.090;2023-06-24T01:55:16;1.85;;;1.38;;
76599;SDS011;65489;52.048;6.090;2023-06-24T01:57:46;1.45;;;1.35;;
76599;SDS011;65489;52.048;6.090;2023-06-24T02:00:13;1.85;;;1.60;;
76599;SDS011;65489;52.048;6.090;2023-06-24T02:02:47;1.42;;;1.33;;
76599;SDS011;65489;52.048;6.090;2023-06-24T02:05:15;1.58;;;1.23;;
76599;SDS011;65489;52.048;6.090;2023-06-24T02:07:43;1.40;;;1.30;;
76599;SDS011;65489;52.048;6.090;2023-06-24T02:10:13;1.40;;;1.30;;
76599;SDS011;65489;52.048;6.090;2023-06-24T02:12:39;1.98;;;1.40;;
76599;SDS011;65489;52.048;6.090;2023-06-24T02:15:05;2.90;;;1.40;;
76599;SDS011;65489;52.048;6.090;2023-06-24T02:17:32;2.90;;;1.30;;
76599;SDS011;65489;52.048;6.090;2023-06-24T02:19:58;1.40;;;1.30;;
76599;SDS011;65489;52.048;6.090;2023-06-24T02:22:25;2.17;;;1.30;;
76599;SDS011;65489;52.048;6.090;2023-06-24T02:24:51;2.42;;;1.42;;
76599;SDS011;65489;52.048;6.090;2023-06-24T02:27:17;2.03;;;1.40;;
76599;SDS011;65489;52.048;6.090;2023-06-24T02:29:43;1.52;;;1.42;;
76599;SDS011;65489;52.048;6.090;2023-06-24T02:32:11;2.08;;;1.20;;
76599;SDS011;65489;52.048;6.090;2023-06-24T02:34:36;1.30;;;1.02;;
76599;SDS011;65489;52.048;6.090;2023-06-24T02:37:02;1.70;;;1.60;;
76599;SDS011;65489;52.048;6.090;2023-06-24T02:39:28;1.67;;;1.40;;
76599;SDS011;65489;52.048;6.090;2023-06-24T02:41:53;1.40;;;1.30;;
76599;SDS011;65489;52.048;6.090;2023-06-24T02:44:19;1.55;;;1.45;;
76599;SDS011;65489;52.048;6.090;2023-06-24T02:46:45;1.58;;;1.40;;
76599;SDS011;65489;52.048;6.090;2023-06-24T02:49:12;1.50;;;1.38;;
76599;SDS011;65489;52.048;6.090;2023-06-24T02:51:39;1.60;;;1.40;;
76599;SDS011;65489;52.048;6.090;2023-06-24T02:54:05;1.50;;;1.30;;
76599;SDS011;65489;52.048;6.090;2023-06-24T02:56:51;1.52;;;1.42;;
76599;SDS011;65489;52.048;6.090;2023-06-24T02:59:25;1.45;;;1.30;;
76599;SDS011;65489;52.048;6.090;2023-06-24T03:01:51;1.33;;;1.23;;
76599;SDS011;65489;52.048;6.090;2023-06-24T03:04:18;1.38;;;1.20;;
76599;SDS011;65489;52.048;6.090;2023-06-24T03:06:45;1.38;;;1.27;;
76599;SDS011;65489;52.048;6.090;2023-06-24T03:09:10;1.40;;;1.25;;
76599;SDS011;65489;52.048;6.090;2023-06-24T03:11:43;1.65;;;1.42;;
76599;SDS011;65489;52.048;6.090;2023-06-24T03:14:10;2.03;;;1.60;;
76599;SDS011;65489;52.048;6.090;2023-06-24T03:16:40;1.45;;;1.35;;
76599;SDS011;65489;52.048;6.090;2023-06-24T03:19:15;1.80;;;1.42;;
76599;SDS011;65489;52.048;6.090;2023-06-24T03:21:41;1.70;;;1.60;;
76599;SDS011;65489;52.048;6.090;2023-06-24T03:24:10;1.38;;;1.27;;
76599;SDS011;65489;52.048;6.090;2023-06-24T03:26:38;2.03;;;1.60;;
76599;SDS011;65489;52.048;6.090;2023-06-24T03:29:06;1.50;;;1.40;;
76599;SDS011;65489;52.048;6.090;2023-06-24T03:31:34;2.22;;;1.50;;
76599;SDS011;65489;52.048;6.090;2023-06-24T03:34:00;1.30;;;1.20;;
76599;SDS011;65489;52.048;6.090;2023-06-24T03:36:26;1.50;;;1.33;;
76599;SDS011;65489;52.048;6.090;2023-06-24T03:38:52;2.85;;;1.50;;
76599;SDS011;65489;52.048;6.090;2023-06-24T03:41:17;2.05;;;1.60;;
76599;SDS011;65489;52.048;6.090;2023-06-24T03:43:43;2.22;;;1.50;;
76599;SDS011;65489;52.048;6.090;2023-06-24T03:46:12;1.55;;;1.45;;
76599;SDS011;65489;52.048;6.090;2023-06-24T03:48:38;1.53;;;1.43;;
76599;SDS011;65489;52.048;6.090;2023-06-24T03:51:03;1.92;;;1.40;;
76599;SDS011;65489;52.048;6.090;2023-06-24T03:53:30;2.28;;;1.23;;
76599;SDS011;65489;52.048;6.090;2023-06-24T03:55:56;2.38;;;1.50;;
76599;SDS011;65489;52.048;6.090;2023-06-24T03:58:22;1.65;;;1.42;;
76599;SDS011;65489;52.048;6.090;2023-06-24T04:00:48;1.63;;;1.52;;
76599;SDS011;65489;52.048;6.090;2023-06-24T04:03:15;1.70;;;1.50;;
76599;SDS011;65489;52.048;6.090;2023-06-24T04:05:43;1.90;;;1.70;;
76599;SDS011;65489;52.048;6.090;2023-06-24T04:08:09;1.83;;;1.58;;
76599;SDS011;65489;52.048;6.090;2023-06-24T04:10:35;1.92;;;1.35;;
76599;SDS011;65489;52.048;6.090;2023-06-24T04:13:00;1.45;;;1.35;;
76599;SDS011;65489;52.048;6.090;2023-06-24T04:15:26;3.45;;;1.58;;
76599;SDS011;65489;52.048;6.090;2023-06-24T04:17:52;1.50;;;1.40;;
76599;SDS011;65489;52.048;6.090;2023-06-24T04:20:19;1.67;;;1.50;;
76599;SDS011;65489;52.048;6.090;2023-06-24T04:22:44;1.60;;;1.50;;
76599;SDS011;65489;52.048;6.090;2023-06-24T04:25:10;1.40;;;1.30;;
76599;SDS011;65489;52.048;6.090;2023-06-24T04:27:36;2.47;;;1.40;;
76599;SDS011;65489;52.048;6.090;2023-06-24T04:30:04;2.40;;;1.50;;
76599;SDS011;65489;52.048;6.090;2023-06-24T04:32:30;1.48;;;1.25;;
76599;SDS011;65489;52.048;6.090;2023-06-24T04:34:57;1.30;;;1.20;;
76599;SDS011;65489;52.048;6.090;2023-06-24T04:37:24;1.40;;;1.30;;
76599;SDS011;65489;52.048;6.090;2023-06-24T04:39:50;2.47;;;1.55;;
76599;SDS011;65489;52.048;6.090;2023-06-24T04:42:16;1.60;;;1.50;;
76599;SDS011;65489;52.048;6.090;2023-06-24T04:44:41;1.50;;;1.40;;
76599;SDS011;65489;52.048;6.090;2023-06-24T04:47:07;2.40;;;1.23;;
76599;SDS011;65489;52.048;6.090;2023-06-24T04:49:32;1.70;;;1.42;;
76599;SDS011;65489;52.048;6.090;2023-06-24T04:52:02;2.40;;;1.73;;
76599;SDS011;65489;52.048;6.090;2023-06-24T04:54:28;1.52;;;1.30;;
76599;SDS011;65489;52.048;6.090;2023-06-24T04:56:53;1.80;;;1.52;;
76599;SDS011;65489;52.048;6.090;2023-06-24T04:59:21;1.45;;;1.35;;
76599;SDS011;65489;52.048;6.090;2023-06-24T05:01:46;2.00;;;1.55;;
76599;SDS011;65489;52.048;6.090;2023-06-24T05:04:12;1.90;;;1.40;;
76599;SDS011;65489;52.048;6.090;2023-06-24T05:06:37;1.50;;;1.40;;
76599;SDS011;65489;52.048;6.090;2023-06-24T05:09:03;1.95;;;1.52;;
76599;SDS011;65489;52.048;6.090;2023-06-24T05:11:28;1.60;;;1.50;;
76599;SDS011;65489;52.048;6.090;2023-06-24T05:13:54;1.50;;;1.40;;
76599;SDS011;65489;52.048;6.090;2023-06-24T05:16:19;1.55;;;1.45;;
76599;SDS011;65489;52.048;6.090;2023-06-24T05:18:45;1.60;;;1.50;;
76599;SDS011;65489;52.048;6.090;2023-06-24T05:21:10;1.90;;;1.48;;
76599;SDS011;65489;52.048;6.090;2023-06-24T05:23:36;2.03;;;1.42;;
76599;SDS011;65489;52.048;6.090;2023-06-24T05:26:01;1.58;;;1.48;;
76599;SDS011;65489;52.048;6.090;2023-06-24T05:28:27;1.90;;;1.52;;
76599;SDS011;65489;52.048;6.090;2023-06-24T05:30:52;1.40;;;1.30;;
76599;SDS011;65489;52.048;6.090;2023-06-24T05:33:18;1.50;;;1.30;;
76599;SDS011;65489;52.048;6.090;2023-06-24T05:35:43;2.85;;;1.60;;
76599;SDS011;65489;52.048;6.090;2023-06-24T05:38:09;3.58;;;1.50;;
76599;SDS011;65489;52.048;6.090;2023-06-24T05:40:34;3.78;;;2.35;;
76599;SDS011;65489;52.048;6.090;2023-06-24T05:43:00;2.85;;;2.38;;
76599;SDS011;65489;52.048;6.090;2023-06-24T05:45:26;3.42;;;2.42;;
76599;SDS011;65489;52.048;6.090;2023-06-24T05:47:51;2.70;;;2.30;;
76599;SDS011;65489;52.048;6.090;2023-06-24T05:50:17;2.95;;;2.38;;
76599;SDS011;65489;52.048;6.090;2023-06-24T05:52:42;2.90;;;2.33;;
76599;SDS011;65489;52.048;6.090;2023-06-24T05:55:08;2.60;;;2.20;;
76599;SDS011;65489;52.048;6.090;2023-06-24T05:57:34;2.05;;;1.73;;
76599;SDS011;65489;52.048;6.090;2023-06-24T05:59:59;2.35;;;1.85;;
76599;SDS011;65489;52.048;6.090;2023-06-24T06:02:25;1.60;;;1.50;;
76599;SDS011;65489;52.048;6.090;2023-06-24T06:04:50;2.05;;;1.70;;
76599;SDS011;65489;52.048;6.090;2023-06-24T06:07:16;1.98;;;1.77;;
76599;SDS011;65489;52.048;6.090;2023-06-24T06:09:41;2.83;;;1.70;;
76599;SDS011;65489;52.048;6.090;2023-06-24T06:12:07;2.58;;;1.60;;
76599;SDS011;65489;52.048;6.090;2023-06-24T06:14:33;2.00;;;1.40;;
76599;SDS011;65489;52.048;6.090;2023-06-24T06:16:58;2.33;;;1.50;;
76599;SDS011;65489;52.048;6.090;2023-06-24T06:19:24;2.30;;;1.60;;
76599;SDS011;65489;52.048;6.090;2023-06-24T06:21:49;1.85;;;1.50;;
76599;SDS011;65489;52.048;6.090;2023-06-24T06:24:16;2.30;;;1.30;;
76599;SDS011;65489;52.048;6.090;2023-06-24T06:26:42;2.17;;;1.40;;
76599;SDS011;65489;52.048;6.090;2023-06-24T06:29:08;1.10;;;1.00;;
76599;SDS011;65489;52.048;6.090;2023-06-24T06:31:34;1.98;;;1.30;;
76599;SDS011;65489;52.048;6.090;2023-06-24T06:33:59;1.30;;;1.20;;
76599;SDS011;65489;52.048;6.090;2023-06-24T06:36:26;1.48;;;1.20;;
76599;SDS011;65489;52.048;6.090;2023-06-24T06:38:52;1.55;;;1.33;;
76599;SDS011;65489;52.048;6.090;2023-06-24T06:41:18;1.27;;;1.02;;
76599;SDS011;65489;52.048;6.090;2023-06-24T06:43:49;1.55;;;1.40;;
76599;SDS011;65489;52.048;6.090;2023-06-24T06:46:15;2.00;;;1.50;;
76599;SDS011;65489;52.048;6.090;2023-06-24T06:48:40;1.80;;;1.40;;
76599;SDS011;65489;52.048;6.090;2023-06-24T06:51:06;2.05;;;1.48;;
76599;SDS011;65489;52.048;6.090;2023-06-24T06:53:31;2.00;;;1.25;;
76599;SDS011;65489;52.048;6.090;2023-06-24T06:55:57;1.63;;;1.25;;
76599;SDS011;65489;52.048;6.090;2023-06-24T06:58:23;1.60;;;1.30;;
76599;SDS011;65489;52.048;6.090;2023-06-24T07:00:49;1.58;;;1.23;;
76599;SDS011;65489;52.048;6.090;2023-06-24T07:03:15;1.52;;;1.10;;
76599;SDS011;65489;52.048;6.090;2023-06-24T07:05:41;1.92;;;1.60;;
76599;SDS011;65489;52.048;6.090;2023-06-24T07:08:06;1.40;;;1.17;;
76599;SDS011;65489;52.048;6.090;2023-06-24T07:10:32;1.92;;;1.35;;
76599;SDS011;65489;52.048;6.090;2023-06-24T07:12:58;1.50;;;1.20;;
76599;SDS011;65489;52.048;6.090;2023-06-24T07:15:25;1.63;;;1.30;;
76599;SDS011;65489;52.048;6.090;2023-06-24T07:17:51;3.08;;;1.20;;
76599;SDS011;65489;52.048;6.090;2023-06-24T07:20:18;1.50;;;1.40;;
76599;SDS011;65489;52.048;6.090;2023-06-24T07:22:44;2.08;;;1.40;;
76599;SDS011;65489;52.048;6.090;2023-06-24T07:25:09;1.40;;;1.27;;
76599;SDS011;65489;52.048;6.090;2023-06-24T07:27:36;1.45;;;1.30;;
76599;SDS011;65489;52.048;6.090;2023-06-24T07:30:02;3.03;;;1.50;;
76599;SDS011;65489;52.048;6.090;2023-06-24T07:32:30;2.05;;;1.17;;
76599;SDS011;65489;52.048;6.090;2023-06-24T07:34:56;1.73;;;1.38;;
76599;SDS011;65489;52.048;6.090;2023-06-24T07:37:22;2.25;;;1.02;;
76599;SDS011;65489;52.048;6.090;2023-06-24T07:39:48;1.80;;;1.30;;
76599;SDS011;65489;52.048;6.090;2023-06-24T07:42:15;1.50;;;1.30;;
76599;SDS011;65489;52.048;6.090;2023-06-24T07:44:47;1.75;;;1.30;;
76599;SDS011;65489;52.048;6.090;2023-06-24T07:47:13;1.85;;;1.10;;
76599;SDS011;65489;52.048;6.090;2023-06-24T07:49:40;1.50;;;1.27;;
76599;SDS011;65489;52.048;6.090;2023-06-24T07:52:06;2.83;;;1.50;;
76599;SDS011;65489;52.048;6.090;2023-06-24T07:54:32;2.47;;;1.35;;
76599;SDS011;65489;52.048;6.090;2023-06-24T07:56:58;1.75;;;1.40;;
76599;SDS011;65489;52.048;6.090;2023-06-24T07:59:24;2.10;;;1.45;;
76599;SDS011;65489;52.048;6.090;2023-06-24T08:01:50;2.28;;;1.38;;
76599;SDS011;65489;52.048;6.090;2023-06-24T08:04:16;3.88;;;1.95;;
76599;SDS011;65489;52.048;6.090;2023-06-24T08:06:42;1.30;;;1.20;;
76599;SDS011;65489;52.048;6.090;2023-06-24T08:09:07;2.42;;;1.50;;
76599;SDS011;65489;52.048;6.090;2023-06-24T08:11:33;3.22;;;1.50;;
76599;SDS011;65489;52.048;6.090;2023-06-24T08:13:58;2.25;;;1.70;;
76599;SDS011;65489;52.048;6.090;2023-06-24T08:16:24;2.08;;;1.50;;
76599;SDS011;65489;52.048;6.090;2023-06-24T08:18:49;1.90;;;1.35;;
76599;SDS011;65489;52.048;6.090;2023-06-24T08:21:15;1.92;;;1.70;;
76599;SDS011;65489;52.048;6.090;2023-06-24T08:23:40;2.75;;;1.73;;
76599;SDS011;65489;52.048;6.090;2023-06-24T08:26:06;2.58;;;1.77;;
76599;SDS011;65489;52.048;6.090;2023-06-24T08:28:32;2.38;;;1.63;;
76599;SDS011;65489;52.048;6.090;2023-06-24T08:30:58;3.10;;;1.67;;
76599;SDS011;65489;52.048;6.090;2023-06-24T08:33:23;2.33;;;1.65;;
76599;SDS011;65489;52.048;6.090;2023-06-24T08:35:49;2.22;;;1.70;;
76599;SDS011;65489;52.048;6.090;2023-06-24T08:38:14;2.72;;;1.23;;
76599;SDS011;65489;52.048;6.090;2023-06-24T08:40:40;1.55;;;1.30;;
76599;SDS011;65489;52.048;6.090;2023-06-24T08:43:06;1.48;;;1.15;;
76599;SDS011;65489;52.048;6.090;2023-06-24T08:45:31;2.53;;;1.00;;
76599;SDS011;65489;52.048;6.090;2023-06-24T08:47:57;1.35;;;1.17;;
76599;SDS011;65489;52.048;6.090;2023-06-24T08:50:26;3.20;;;1.40;;
76599;SDS011;65489;52.048;6.090;2023-06-24T08:52:55;2.58;;;1.23;;
76599;SDS011;65489;52.048;6.090;2023-06-24T08:55:22;3.17;;;1.45;;
76599;SDS011;65489;52.048;6.090;2023-06-24T08:57:49;2.10;;;1.10;;
76599;SDS011;65489;52.048;6.090;2023-06-24T09:00:15;1.85;;;1.48;;
76599;SDS011;65489;52.048;6.090;2023-06-24T09:02:40;1.08;;;0.98;;
76599;SDS011;65489;52.048;6.090;2023-06-24T09:05:06;1.60;;;1.00;;
76599;SDS011;65489;52.048;6.090;2023-06-24T09:07:33;1.50;;;1.02;;
76599;SDS011;65489;52.048;6.090;2023-06-24T09:09:59;3.67;;;1.42;;
76599;SDS011;65489;52.048;6.090;2023-06-24T09:12:28;1.50;;;1.25;;
76599;SDS011;65489;52.048;6.090;2023-06-24T09:14:56;1.73;;;1.48;;
76599;SDS011;65489;52.048;6.090;2023-06-24T09:17:22;2.15;;;1.30;;
76599;SDS011;65489;52.048;6.090;2023-06-24T09:19:48;1.38;;;1.08;;
76599;SDS011;65489;52.048;6.090;2023-06-24T09:22:14;1.40;;;1.13;;
76599;SDS011;65489;52.048;6.090;2023-06-24T09:24:46;2.30;;;1.10;;
76599;SDS011;65489;52.048;6.090;2023-06-24T09:27:13;1.85;;;1.20;;
76599;SDS011;65489;52.048;6.090;2023-06-24T09:29:39;1.38;;;1.10;;
76599;SDS011;65489;52.048;6.090;2023-06-24T09:32:05;1.38;;;1.20;;
76599;SDS011;65489;52.048;6.090;2023-06-24T09:34:31;1.40;;;1.20;;
76599;SDS011;65489;52.048;6.090;2023-06-24T09:36:57;2.10;;;1.10;;
76599;SDS011;65489;52.048;6.090;2023-06-24T09:39:23;1.63;;;1.15;;
76599;SDS011;65489;52.048;6.090;2023-06-24T09:41:56;1.58;;;1.17;;
76599;SDS011;65489;52.048;6.090;2023-06-24T09:44:22;1.70;;;1.10;;
76599;SDS011;65489;52.048;6.090;2023-06-24T09:46:49;1.98;;;1.10;;
76599;SDS011;65489;52.048;6.090;2023-06-24T09:49:14;1.83;;;1.40;;
76599;SDS011;65489;52.048;6.090;2023-06-24T09:51:44;1.23;;;1.05;;
76599;SDS011;65489;52.048;6.090;2023-06-24T09:54:11;2.38;;;1.10;;
76599;SDS011;65489;52.048;6.090;2023-06-24T09:56:40;1.85;;;1.17;;
76599;SDS011;65489;52.048;6.090;2023-06-24T09:59:09;3.10;;;1.50;;
76599;SDS011;65489;52.048;6.090;2023-06-24T10:01:38;1.83;;;1.40;;
76599;SDS011;65489;52.048;6.090;2023-06-24T10:04:08;2.45;;;1.60;;
76599;SDS011;65489;52.048;6.090;2023-06-24T10:06:35;1.40;;;1.10;;
76599;SDS011;65489;52.048;6.090;2023-06-24T10:09:01;1.92;;;1.42;;
76599;SDS011;65489;52.048;6.090;2023-06-24T10:11:27;1.52;;;1.40;;
76599;SDS011;65489;52.048;6.090;2023-06-24T10:13:53;1.60;;;1.30;;
76599;SDS011;65489;52.048;6.090;2023-06-24T10:16:20;1.80;;;1.58;;
76599;SDS011;65489;52.048;6.090;2023-06-24T10:18:46;1.65;;;1.40;;
76599;SDS011;65489;52.048;6.090;2023-06-24T10:21:15;2.15;;;1.70;;
76599;SDS011;65489;52.048;6.090;2023-06-24T10:26:26;3.00;;;1.80;;
76599;SDS011;65489;52.048;6.090;2023-06-24T10:37:07;3.22;;;1.60;;
76599;SDS011;65489;52.048;6.090;2023-06-24T10:44:52;4.25;;;2.03;;
76599;SDS011;65489;52.048;6.090;2023-06-24T10:47:19;1.92;;;1.67;;
76599;SDS011;65489;52.048;6.090;2023-06-24T10:49:46;2.50;;;1.70;;
76599;SDS011;65489;52.048;6.090;2023-06-24T10:52:12;1.90;;;1.70;;
76599;SDS011;65489;52.048;6.090;2023-06-24T10:54:38;2.47;;;1.70;;
76599;SDS011;65489;52.048;6.090;2023-06-24T10:57:04;1.95;;;1.58;;
76599;SDS011;65489;52.048;6.090;2023-06-24T11:02:04;2.55;;;2.00;;
76599;SDS011;65489;52.048;6.090;2023-06-24T11:04:30;2.20;;;1.80;;
76599;SDS011;65489;52.048;6.090;2023-06-24T11:06:59;2.63;;;1.75;;
76599;SDS011;65489;52.048;6.090;2023-06-24T11:09:25;2.95;;;1.83;;
76599;SDS011;65489;52.048;6.090;2023-06-24T11:11:50;2.70;;;1.70;;
76599;SDS011;65489;52.048;6.090;2023-06-24T11:14:16;2.78;;;1.95;;
76599;SDS011;65489;52.048;6.090;2023-06-24T11:16:41;3.38;;;1.90;;
76599;SDS011;65489;52.048;6.090;2023-06-24T11:19:07;1.90;;;1.60;;
76599;SDS011;65489;52.048;6.090;2023-06-24T11:21:32;2.45;;;1.70;;
76599;SDS011;65489;52.048;6.090;2023-06-24T11:24:07;2.50;;;1.70;;
76599;SDS011;65489;52.048;6.090;2023-06-24T11:26:33;2.92;;;1.70;;
76599;SDS011;65489;52.048;6.090;2023-06-24T11:28:58;2.38;;;1.63;;
76599;SDS011;65489;52.048;6.090;2023-06-24T11:31:27;3.17;;;1.60;;
76599;SDS011;65489;52.048;6.090;2023-06-24T11:33:53;2.13;;;1.77;;
76599;SDS011;65489;52.048;6.090;2023-06-24T11:36:19;2.08;;;1.70;;
76599;SDS011;65489;52.048;6.090;2023-06-24T11:38:48;2.75;;;1.65;;
76599;SDS011;65489;52.048;6.090;2023-06-24T11:41:14;1.85;;;1.60;;
76599;SDS011;65489;52.048;6.090;2023-06-24T11:43:44;2.90;;;1.63;;
76599;SDS011;65489;52.048;6.090;2023-06-24T11:46:10;2.33;;;1.90;;
76599;SDS011;65489;52.048;6.090;2023-06-24T11:49:05;1.75;;;1.45;;
76599;SDS011;65489;52.048;6.090;2023-06-24T11:51:56;1.83;;;1.48;;
76599;SDS011;65489;52.048;6.090;2023-06-24T11:54:21;2.35;;;2.00;;
76599;SDS011;65489;52.048;6.090;2023-06-24T11:56:52;1.75;;;1.65;;
76599;SDS011;65489;52.048;6.090;2023-06-24T11:59:30;2.63;;;1.73;;
76599;SDS011;65489;52.048;6.090;2023-06-24T12:01:58;1.83;;;1.63;;
76599;SDS011;65489;52.048;6.090;2023-06-24T12:04:31;1.80;;;1.60;;
76599;SDS011;65489;52.048;6.090;2023-06-24T12:07:02;2.60;;;1.83;;
76599;SDS011;65489;52.048;6.090;2023-06-24T12:09:31;1.95;;;1.75;;
76599;SDS011;65489;52.048;6.090;2023-06-24T12:12:00;2.00;;;1.75;;
76599;SDS011;65489;52.048;6.090;2023-06-24T12:14:26;2.45;;;1.67;;
76599;SDS011;65489;52.048;6.090;2023-06-24T12:16:51;3.15;;;1.70;;
76599;SDS011;65489;52.048;6.090;2023-06-24T12:19:18;2.25;;;1.50;;
76599;SDS011;65489;52.048;6.090;2023-06-24T12:21:45;3.23;;;1.60;;
76599;SDS011;65489;52.048;6.090;2023-06-24T12:24:11;2.45;;;1.60;;
76599;SDS011;65489;52.048;6.090;2023-06-24T12:26:38;2.22;;;1.75;;
76599;SDS011;65489;52.048;6.090;2023-06-24T12:29:03;2.10;;;1.90;;
76599;SDS011;65489;52.048;6.090;2023-06-24T12:31:29;1.88;;;1.60;;
76599;SDS011;65489;52.048;6.090;2023-06-24T12:33:55;2.03;;;1.63;;
76599;SDS011;65489;52.048;6.090;2023-06-24T12:36:21;2.50;;;1.73;;
76599;SDS011;65489;52.048;6.090;2023-06-24T12:38:47;2.08;;;1.73;;
76599;SDS011;65489;52.048;6.090;2023-06-24T12:41:13;2.20;;;1.90;;
76599;SDS011;65489;52.048;6.090;2023-06-24T12:43:39;2.22;;;1.77;;
76599;SDS011;65489;52.048;6.090;2023-06-24T12:46:07;2.10;;;1.77;;
76599;SDS011;65489;52.048;6.090;2023-06-24T12:48:33;2.20;;;1.80;;
76599;SDS011;65489;52.048;6.090;2023-06-24T12:51:00;1.98;;;1.73;;
76599;SDS011;65489;52.048;6.090;2023-06-24T12:53:26;2.15;;;1.77;;
76599;SDS011;65489;52.048;6.090;2023-06-24T12:55:51;2.10;;;1.88;;
76599;SDS011;65489;52.048;6.090;2023-06-24T12:58:22;2.38;;;2.10;;
76599;SDS011;65489;52.048;6.090;2023-06-24T13:00:49;1.98;;;1.77;;
76599;SDS011;65489;52.048;6.090;2023-06-24T13:03:15;2.47;;;1.70;;
76599;SDS011;65489;52.048;6.090;2023-06-24T13:05:40;2.20;;;1.90;;
76599;SDS011;65489;52.048;6.090;2023-06-24T13:08:06;2.17;;;1.85;;
76599;SDS011;65489;52.048;6.090;2023-06-24T13:10:32;2.03;;;1.77;;
76599;SDS011;65489;52.048;6.090;2023-06-24T13:12:57;2.20;;;1.58;;
76599;SDS011;65489;52.048;6.090;2023-06-24T13:15:23;2.30;;;1.98;;
76599;SDS011;65489;52.048;6.090;2023-06-24T13:17:49;2.45;;;1.88;;
76599;SDS011;65489;52.048;6.090;2023-06-24T13:20:15;1.75;;;1.55;;
76599;SDS011;65489;52.048;6.090;2023-06-24T13:22:41;2.47;;;1.80;;
76599;SDS011;65489;52.048;6.090;2023-06-24T13:25:07;2.00;;;1.80;;
76599;SDS011;65489;52.048;6.090;2023-06-24T13:27:33;2.35;;;1.90;;
76599;SDS011;65489;52.048;6.090;2023-06-24T13:29:59;2.17;;;1.98;;
76599;SDS011;65489;52.048;6.090;2023-06-24T13:32:25;3.20;;;2.00;;
76599;SDS011;65489;52.048;6.090;2023-06-24T13:34:53;2.45;;;1.88;;
76599;SDS011;65489;52.048;6.090;2023-06-24T13:39:45;1.38;;;1.27;;
76599;SDS011;65489;52.048;6.090;2023-06-24T13:42:11;2.75;;;1.65;;
76599;SDS011;65489;52.048;6.090;2023-06-24T13:44:37;2.08;;;1.80;;
76599;SDS011;65489;52.048;6.090;2023-06-24T13:47:04;3.03;;;1.67;;
76599;SDS011;65489;52.048;6.090;2023-06-24T13:49:30;2.22;;;1.75;;
76599;SDS011;65489;52.048;6.090;2023-06-24T13:51:56;2.58;;;1.85;;
76599;SDS011;65489;52.048;6.090;2023-06-24T13:54:22;2.03;;;1.83;;
76599;SDS011;65489;52.048;6.090;2023-06-24T13:56:47;2.22;;;1.60;;
76599;SDS011;65489;52.048;6.090;2023-06-24T13:59:13;1.92;;;1.65;;
76599;SDS011;65489;52.048;6.090;2023-06-24T14:01:38;2.20;;;1.77;;
76599;SDS011;65489;52.048;6.090;2023-06-24T14:04:05;2.90;;;1.92;;
76599;SDS011;65489;52.048;6.090;2023-06-24T14:06:31;2.17;;;1.90;;
76599;SDS011;65489;52.048;6.090;2023-06-24T14:08:56;2.05;;;1.83;;
76599;SDS011;65489;52.048;6.090;2023-06-24T14:11:22;1.70;;;1.50;;
76599;SDS011;65489;52.048;6.090;2023-06-24T14:13:48;2.00;;;1.77;;
76599;SDS011;65489;52.048;6.090;2023-06-24T14:16:13;2.58;;;1.95;;
76599;SDS011;65489;52.048;6.090;2023-06-24T14:18:39;1.90;;;1.70;;
76599;SDS011;65489;52.048;6.090;2023-06-24T14:21:04;3.92;;;1.77;;
76599;SDS011;65489;52.048;6.090;2023-06-24T14:23:31;1.88;;;1.65;;
76599;SDS011;65489;52.048;6.090;2023-06-24T14:25:57;1.60;;;1.50;;
76599;SDS011;65489;52.048;6.090;2023-06-24T14:28:24;1.90;;;1.80;;
76599;SDS011;65489;52.048;6.090;2023-06-24T14:30:50;2.00;;;1.75;;
76599;SDS011;65489;52.048;6.090;2023-06-24T14:33:16;2.17;;;1.67;;
76599;SDS011;65489;52.048;6.090;2023-06-24T14:35:41;1.75;;;1.60;;
76599;SDS011;65489;52.048;6.090;2023-06-24T14:38:07;2.42;;;1.88;;
76599;SDS011;65489;52.048;6.090;2023-06-24T14:40:33;2.03;;;1.83;;
76599;SDS011;65489;52.048;6.090;2023-06-24T14:42:58;1.73;;;1.60;;
76599;SDS011;65489;52.048;6.090;2023-06-24T14:45:24;1.98;;;1.77;;
76599;SDS011;65489;52.048;6.090;2023-06-24T14:47:50;2.00;;;1.80;;
76599;SDS011;65489;52.048;6.090;2023-06-24T14:50:15;2.10;;;1.90;;
76599;SDS011;65489;52.048;6.090;2023-06-24T14:52:41;2.00;;;1.77;;
76599;SDS011;65489;52.048;6.090;2023-06-24T14:55:06;1.85;;;1.75;;
76599;SDS011;65489;52.048;6.090;2023-06-24T14:57:32;2.05;;;1.85;;
76599;SDS011;65489;52.048;6.090;2023-06-24T14:59:57;2.38;;;1.65;;
76599;SDS011;65489;52.048;6.090;2023-06-24T15:02:23;2.53;;;1.90;;
76599;SDS011;65489;52.048;6.090;2023-06-24T15:04:50;3.03;;;1.92;;
76599;SDS011;65489;52.048;6.090;2023-06-24T15:07:16;1.70;;;1.58;;
76599;SDS011;65489;52.048;6.090;2023-06-24T15:09:41;2.00;;;1.63;;
76599;SDS011;65489;52.048;6.090;2023-06-24T15:12:08;1.90;;;1.60;;
76599;SDS011;65489;52.048;6.090;2023-06-24T15:14:34;1.80;;;1.55;;
76599;SDS011;65489;52.048;6.090;2023-06-24T15:16:59;1.98;;;1.65;;